sensor_id;sensor_type;location;lat;lon;timestamp;temperature;humidity
5639;DHT22;2841;44.526;11.360;2023-05-07T00:02:06;17.70;99.90
5639;DHT22;2841;44.526;11.360;2023-05-07T00:04:35;17.70;99.90
5639;DHT22;2841;44.526;11.360;2023-05-07T00:07:04;17.70;99.90
5639;DHT22;2841;44.526;11.360;2023-05-07T00:09:32;17.70;99.90
5639;DHT22;2841;44.526;11.360;2023-05-07T00:11:59;17.70;99.90
5639;DHT22;2841;44.526;11.360;2023-05-07T00:14:26;17.70;99.90
5639;DHT22;2841;44.526;11.360;2023-05-07T00:16:53;17.60;99.90
5639;DHT22;2841;44.526;11.360;2023-05-07T00:19:20;17.60;99.90
5639;DHT22;2841;44.526;11.360;2023-05-07T00:21:49;17.60;99.90
5639;DHT22;2841;44.526;11.360;2023-05-07T00:24:19;17.50;99.90
5639;DHT22;2841;44.526;11.360;2023-05-07T00:26:46;17.50;99.90
5639;DHT22;2841;44.526;11.360;2023-05-07T00:29:13;17.50;99.90
5639;DHT22;2841;44.526;11.360;2023-05-07T00:31:40;17.40;99.90
5639;DHT22;2841;44.526;11.360;2023-05-07T00:34:07;17.40;99.90
5639;DHT22;2841;44.526;11.360;2023-05-07T00:36:34;17.40;99.90
5639;DHT22;2841;44.526;11.360;2023-05-07T00:39:03;17.40;99.90
5639;DHT22;2841;44.526;11.360;2023-05-07T00:41:30;17.40;99.90
5639;DHT22;2841;44.526;11.360;2023-05-07T00:43:57;17.40;99.90
5639;DHT22;2841;44.526;11.360;2023-05-07T00:46:24;17.40;99.90
5639;DHT22;2841;44.526;11.360;2023-05-07T00:48:52;17.30;99.90
5639;DHT22;2841;44.526;11.360;2023-05-07T00:51:20;17.30;99.90
5639;DHT22;2841;44.526;11.360;2023-05-07T00:53:48;17.20;99.90
5639;DHT22;2841;44.526;11.360;2023-05-07T00:56:16;17.20;99.90
5639;DHT22;2841;44.526;11.360;2023-05-07T00:58:44;17.10;99.90
5639;DHT22;2841;44.526;11.360;2023-05-07T01:01:11;17.10;99.90
5639;DHT22;2841;44.526;11.360;2023-05-07T01:03:38;17.00;99.90
5639;DHT22;2841;44.526;11.360;2023-05-07T01:06:06;16.90;99.90
5639;DHT22;2841;44.526;11.360;2023-05-07T01:08:34;16.80;99.90
5639;DHT22;2841;44.526;11.360;2023-05-07T01:11:02;16.90;99.90
5639;DHT22;2841;44.526;11.360;2023-05-07T01:13:31;16.90;99.90
5639;DHT22;2841;44.526;11.360;2023-05-07T01:15:59;16.80;99.90
5639;DHT22;2841;44.526;11.360;2023-05-07T01:18:26;16.80;99.90
5639;DHT22;2841;44.526;11.360;2023-05-07T01:20:56;16.70;99.90
5639;DHT22;2841;44.526;11.360;2023-05-07T01:23:27;16.70;99.90
5639;DHT22;2841;44.526;11.360;2023-05-07T01:25:55;16.70;99.90
5639;DHT22;2841;44.526;11.360;2023-05-07T01:28:22;16.70;99.90
5639;DHT22;2841;44.526;11.360;2023-05-07T01:30:53;16.70;99.90
5639;DHT22;2841;44.526;11.360;2023-05-07T01:33:22;16.70;99.90
5639;DHT22;2841;44.526;11.360;2023-05-07T01:35:52;16.70;99.90
5639;DHT22;2841;44.526;11.360;2023-05-07T01:38:21;16.70;99.90
5639;DHT22;2841;44.526;11.360;2023-05-07T01:40:51;16.60;99.90
5639;DHT22;2841;44.526;11.360;2023-05-07T01:43:19;16.60;99.90
5639;DHT22;2841;44.526;11.360;2023-05-07T01:45:47;16.50;99.90
5639;DHT22;2841;44.526;11.360;2023-05-07T01:48:15;16.60;99.90
5639;DHT22;2841;44.526;11.360;2023-05-07T01:50:43;16.60;99.90
5639;DHT22;2841;44.526;11.360;2023-05-07T01:53:11;16.60;99.90
5639;DHT22;2841;44.526;11.360;2023-05-07T01:55:38;16.60;99.90
5639;DHT22;2841;44.526;11.360;2023-05-07T01:58:07;16.50;99.90
5639;DHT22;2841;44.526;11.360;2023-05-07T02:00:34;16.50;99.90
5639;DHT22;2841;44.526;11.360;2023-05-07T02:03:01;16.50;99.90
5639;DHT22;2841;44.526;11.360;2023-05-07T02:05:28;16.50;99.90
5639;DHT22;2841;44.526;11.360;2023-05-07T02:07:55;16.50;99.90
5639;DHT22;2841;44.526;11.360;2023-05-07T02:10:23;16.50;99.90
5639;DHT22;2841;44.526;11.360;2023-05-07T02:12:50;16.50;99.90
5639;DHT22;2841;44.526;11.360;2023-05-07T02:15:18;16.50;99.90
5639;DHT22;2841;44.526;11.360;2023-05-07T02:17:58;16.50;99.90
5639;DHT22;2841;44.526;11.360;2023-05-07T02:20:26;16.50;99.90
5639;DHT22;2841;44.526;11.360;2023-05-07T02:22:54;16.50;99.90
5639;DHT22;2841;44.526;11.360;2023-05-07T02:25:21;16.60;99.90
5639;DHT22;2841;44.526;11.360;2023-05-07T02:27:48;16.60;99.90
5639;DHT22;2841;44.526;11.360;2023-05-07T02:30:15;16.50;99.90
5639;DHT22;2841;44.526;11.360;2023-05-07T02:32:44;16.50;99.90
5639;DHT22;2841;44.526;11.360;2023-05-07T02:35:11;16.50;99.90
5639;DHT22;2841;44.526;11.360;2023-05-07T02:37:38;16.50;99.90
5639;DHT22;2841;44.526;11.360;2023-05-07T02:40:07;16.50;99.90
5639;DHT22;2841;44.526;11.360;2023-05-07T02:42:34;16.40;99.90
5639;DHT22;2841;44.526;11.360;2023-05-07T02:45:01;16.40;99.90
5639;DHT22;2841;44.526;11.360;2023-05-07T02:47:28;16.40;99.90
5639;DHT22;2841;44.526;11.360;2023-05-07T02:49:57;16.40;99.90
5639;DHT22;2841;44.526;11.360;2023-05-07T02:52:24;16.40;99.90
5639;DHT22;2841;44.526;11.360;2023-05-07T02:54:52;16.50;99.90
5639;DHT22;2841;44.526;11.360;2023-05-07T02:57:19;16.50;99.90
5639;DHT22;2841;44.526;11.360;2023-05-07T02:59:46;16.50;99.90
5639;DHT22;2841;44.526;11.360;2023-05-07T03:02:13;16.50;99.90
5639;DHT22;2841;44.526;11.360;2023-05-07T03:04:40;16.50;99.90
5639;DHT22;2841;44.526;11.360;2023-05-07T03:07:09;16.50;99.90
5639;DHT22;2841;44.526;11.360;2023-05-07T03:09:36;16.50;99.90
5639;DHT22;2841;44.526;11.360;2023-05-07T03:12:03;16.50;99.90
5639;DHT22;2841;44.526;11.360;2023-05-07T03:14:31;16.50;99.90
5639;DHT22;2841;44.526;11.360;2023-05-07T03:16:58;16.50;99.90
5639;DHT22;2841;44.526;11.360;2023-05-07T03:19:25;16.50;99.90
5639;DHT22;2841;44.526;11.360;2023-05-07T03:21:52;16.50;99.90
5639;DHT22;2841;44.526;11.360;2023-05-07T03:24:21;16.50;99.90
5639;DHT22;2841;44.526;11.360;2023-05-07T03:26:48;16.50;99.90
5639;DHT22;2841;44.526;11.360;2023-05-07T03:29:15;16.50;99.90
5639;DHT22;2841;44.526;11.360;2023-05-07T03:31:43;16.50;99.90
5639;DHT22;2841;44.526;11.360;2023-05-07T03:34:10;16.50;99.90
5639;DHT22;2841;44.526;11.360;2023-05-07T03:36:37;16.50;99.90
5639;DHT22;2841;44.526;11.360;2023-05-07T03:39:04;16.50;99.90
5639;DHT22;2841;44.526;11.360;2023-05-07T03:41:34;16.50;99.90
5639;DHT22;2841;44.526;11.360;2023-05-07T03:44:01;16.50;99.90
5639;DHT22;2841;44.526;11.360;2023-05-07T03:46:28;16.50;99.90
5639;DHT22;2841;44.526;11.360;2023-05-07T03:48:55;16.50;99.90
5639;DHT22;2841;44.526;11.360;2023-05-07T03:51:22;16.40;99.90
5639;DHT22;2841;44.526;11.360;2023-05-07T03:53:50;16.40;99.90
5639;DHT22;2841;44.526;11.360;2023-05-07T03:56:18;16.20;99.90
5639;DHT22;2841;44.526;11.360;2023-05-07T03:58:47;16.10;99.90
5639;DHT22;2841;44.526;11.360;2023-05-07T04:01:15;16.00;99.90
5639;DHT22;2841;44.526;11.360;2023-05-07T04:03:42;16.00;99.90
5639;DHT22;2841;44.526;11.360;2023-05-07T04:06:09;15.90;99.90
5639;DHT22;2841;44.526;11.360;2023-05-07T04:08:36;15.80;99.90
5639;DHT22;2841;44.526;11.360;2023-05-07T04:11:03;15.80;99.90
5639;DHT22;2841;44.526;11.360;2023-05-07T04:13:30;15.80;99.90
5639;DHT22;2841;44.526;11.360;2023-05-07T04:16:01;15.70;99.90
5639;DHT22;2841;44.526;11.360;2023-05-07T04:18:29;15.70;99.90
5639;DHT22;2841;44.526;11.360;2023-05-07T04:20:56;15.70;99.90
5639;DHT22;2841;44.526;11.360;2023-05-07T04:23:23;15.70;99.90
5639;DHT22;2841;44.526;11.360;2023-05-07T04:25:50;15.70;99.90
5639;DHT22;2841;44.526;11.360;2023-05-07T04:28:18;15.70;99.90
5639;DHT22;2841;44.526;11.360;2023-05-07T04:30:45;15.70;99.90
5639;DHT22;2841;44.526;11.360;2023-05-07T04:33:15;15.70;99.90
5639;DHT22;2841;44.526;11.360;2023-05-07T04:35:42;15.70;99.90
5639;DHT22;2841;44.526;11.360;2023-05-07T04:38:10;15.80;99.90
5639;DHT22;2841;44.526;11.360;2023-05-07T04:40:37;15.80;99.90
5639;DHT22;2841;44.526;11.360;2023-05-07T04:43:04;15.90;99.90
5639;DHT22;2841;44.526;11.360;2023-05-07T04:45:33;15.90;99.90
5639;DHT22;2841;44.526;11.360;2023-05-07T04:48:00;15.90;99.90
5639;DHT22;2841;44.526;11.360;2023-05-07T04:50:28;15.90;99.90
5639;DHT22;2841;44.526;11.360;2023-05-07T04:52:56;16.00;99.90
5639;DHT22;2841;44.526;11.360;2023-05-07T04:55:23;16.00;99.90
5639;DHT22;2841;44.526;11.360;2023-05-07T04:57:51;16.20;99.90
5639;DHT22;2841;44.526;11.360;2023-05-07T05:00:18;16.30;99.90
5639;DHT22;2841;44.526;11.360;2023-05-07T05:02:46;16.30;99.90
5639;DHT22;2841;44.526;11.360;2023-05-07T05:05:13;16.40;99.90
5639;DHT22;2841;44.526;11.360;2023-05-07T05:07:42;16.50;99.90
5639;DHT22;2841;44.526;11.360;2023-05-07T05:10:10;16.60;99.90
5639;DHT22;2841;44.526;11.360;2023-05-07T05:12:37;16.60;99.90
5639;DHT22;2841;44.526;11.360;2023-05-07T05:15:05;16.80;99.90
5639;DHT22;2841;44.526;11.360;2023-05-07T05:17:32;16.90;99.90
5639;DHT22;2841;44.526;11.360;2023-05-07T05:20:00;17.00;99.90
5639;DHT22;2841;44.526;11.360;2023-05-07T05:22:27;17.10;99.90
5639;DHT22;2841;44.526;11.360;2023-05-07T05:24:58;17.10;99.90
5639;DHT22;2841;44.526;11.360;2023-05-07T05:27:26;17.20;99.90
5639;DHT22;2841;44.526;11.360;2023-05-07T05:29:53;17.30;99.90
5639;DHT22;2841;44.526;11.360;2023-05-07T05:32:20;17.40;99.90
5639;DHT22;2841;44.526;11.360;2023-05-07T05:34:47;17.50;99.90
5639;DHT22;2841;44.526;11.360;2023-05-07T05:37:15;17.50;99.90
5639;DHT22;2841;44.526;11.360;2023-05-07T05:39:42;17.60;99.90
5639;DHT22;2841;44.526;11.360;2023-05-07T05:42:11;17.60;99.90
5639;DHT22;2841;44.526;11.360;2023-05-07T05:44:38;17.70;99.90
5639;DHT22;2841;44.526;11.360;2023-05-07T05:47:06;17.80;99.90
5639;DHT22;2841;44.526;11.360;2023-05-07T05:49:33;17.90;99.90
5639;DHT22;2841;44.526;11.360;2023-05-07T05:52:00;17.90;99.90
5639;DHT22;2841;44.526;11.360;2023-05-07T05:54:27;18.00;99.90
5639;DHT22;2841;44.526;11.360;2023-05-07T05:56:54;18.10;99.90
5639;DHT22;2841;44.526;11.360;2023-05-07T05:59:23;18.10;99.90
5639;DHT22;2841;44.526;11.360;2023-05-07T06:01:50;18.20;99.90
5639;DHT22;2841;44.526;11.360;2023-05-07T06:04:17;18.20;99.90
5639;DHT22;2841;44.526;11.360;2023-05-07T06:06:45;18.20;99.90
5639;DHT22;2841;44.526;11.360;2023-05-07T06:09:12;18.30;99.90
5639;DHT22;2841;44.526;11.360;2023-05-07T06:11:39;18.30;99.90
5639;DHT22;2841;44.526;11.360;2023-05-07T06:14:07;18.40;99.90
5639;DHT22;2841;44.526;11.360;2023-05-07T06:16:35;18.40;99.90
5639;DHT22;2841;44.526;11.360;2023-05-07T06:19:03;18.50;99.90
5639;DHT22;2841;44.526;11.360;2023-05-07T06:21:31;18.60;99.90
5639;DHT22;2841;44.526;11.360;2023-05-07T06:23:58;18.70;99.90
5639;DHT22;2841;44.526;11.360;2023-05-07T06:26:25;18.70;99.90
5639;DHT22;2841;44.526;11.360;2023-05-07T06:28:52;18.80;99.90
5639;DHT22;2841;44.526;11.360;2023-05-07T06:31:20;18.90;99.90
5639;DHT22;2841;44.526;11.360;2023-05-07T06:33:49;18.90;99.90
5639;DHT22;2841;44.526;11.360;2023-05-07T06:36:16;19.00;99.90
5639;DHT22;2841;44.526;11.360;2023-05-07T06:38:43;19.00;99.90
5639;DHT22;2841;44.526;11.360;2023-05-07T06:41:10;19.10;99.90
5639;DHT22;2841;44.526;11.360;2023-05-07T06:43:38;19.10;99.90
5639;DHT22;2841;44.526;11.360;2023-05-07T06:46:05;19.20;99.90
5639;DHT22;2841;44.526;11.360;2023-05-07T06:48:32;19.30;99.90
5639;DHT22;2841;44.526;11.360;2023-05-07T06:51:00;19.30;99.90
5639;DHT22;2841;44.526;11.360;2023-05-07T06:53:27;19.30;99.90
5639;DHT22;2841;44.526;11.360;2023-05-07T06:55:56;19.30;99.90
5639;DHT22;2841;44.526;11.360;2023-05-07T06:58:23;19.40;99.90
5639;DHT22;2841;44.526;11.360;2023-05-07T07:00:50;19.30;99.90
5639;DHT22;2841;44.526;11.360;2023-05-07T07:03:17;19.20;99.90
5639;DHT22;2841;44.526;11.360;2023-05-07T07:05:45;19.20;99.90
5639;DHT22;2841;44.526;11.360;2023-05-07T07:08:13;19.20;99.90
5639;DHT22;2841;44.526;11.360;2023-05-07T07:10:42;19.30;99.90
5639;DHT22;2841;44.526;11.360;2023-05-07T07:13:10;19.40;99.90
5639;DHT22;2841;44.526;11.360;2023-05-07T07:15:38;19.50;99.90
5639;DHT22;2841;44.526;11.360;2023-05-07T07:18:05;19.60;99.90
5639;DHT22;2841;44.526;11.360;2023-05-07T07:20:32;19.60;99.90
5639;DHT22;2841;44.526;11.360;2023-05-07T07:23:01;19.60;99.90
5639;DHT22;2841;44.526;11.360;2023-05-07T07:25:29;19.70;99.90
5639;DHT22;2841;44.526;11.360;2023-05-07T07:27:56;19.70;99.90
5639;DHT22;2841;44.526;11.360;2023-05-07T07:30:25;19.80;99.90
5639;DHT22;2841;44.526;11.360;2023-05-07T07:32:53;19.80;99.90
5639;DHT22;2841;44.526;11.360;2023-05-07T07:35:20;20.00;99.90
5639;DHT22;2841;44.526;11.360;2023-05-07T07:37:48;20.00;99.90
5639;DHT22;2841;44.526;11.360;2023-05-07T07:40:16;20.10;99.80
5639;DHT22;2841;44.526;11.360;2023-05-07T07:42:45;20.10;98.60
5639;DHT22;2841;44.526;11.360;2023-05-07T07:45:12;20.00;98.30
5639;DHT22;2841;44.526;11.360;2023-05-07T07:47:40;20.10;98.30
5639;DHT22;2841;44.526;11.360;2023-05-07T07:50:08;20.10;97.90
5639;DHT22;2841;44.526;11.360;2023-05-07T07:52:36;20.30;97.80
5639;DHT22;2841;44.526;11.360;2023-05-07T07:55:04;20.40;96.90
5639;DHT22;2841;44.526;11.360;2023-05-07T07:57:33;20.50;96.70
5639;DHT22;2841;44.526;11.360;2023-05-07T08:00:01;20.60;96.00
5639;DHT22;2841;44.526;11.360;2023-05-07T08:02:28;20.70;95.10
5639;DHT22;2841;44.526;11.360;2023-05-07T08:04:55;20.70;94.90
5639;DHT22;2841;44.526;11.360;2023-05-07T08:07:23;20.80;94.50
5639;DHT22;2841;44.526;11.360;2023-05-07T08:09:50;20.90;93.60
5639;DHT22;2841;44.526;11.360;2023-05-07T08:12:17;20.90;92.40
5639;DHT22;2841;44.526;11.360;2023-05-07T08:14:44;20.90;92.40
5639;DHT22;2841;44.526;11.360;2023-05-07T08:17:13;21.10;92.20
5639;DHT22;2841;44.526;11.360;2023-05-07T08:19:41;21.20;91.80
5639;DHT22;2841;44.526;11.360;2023-05-07T08:22:09;21.20;91.10
5639;DHT22;2841;44.526;11.360;2023-05-07T08:24:36;21.30;90.70
5639;DHT22;2841;44.526;11.360;2023-05-07T08:27:03;21.40;90.40
5639;DHT22;2841;44.526;11.360;2023-05-07T08:29:31;21.60;90.30
5639;DHT22;2841;44.526;11.360;2023-05-07T08:31:58;21.80;90.10
5639;DHT22;2841;44.526;11.360;2023-05-07T08:34:27;21.90;88.80
5639;DHT22;2841;44.526;11.360;2023-05-07T08:36:54;21.90;87.40
5639;DHT22;2841;44.526;11.360;2023-05-07T08:39:22;21.90;87.10
5639;DHT22;2841;44.526;11.360;2023-05-07T08:41:52;21.90;85.80
5639;DHT22;2841;44.526;11.360;2023-05-07T08:44:22;21.90;85.80
5639;DHT22;2841;44.526;11.360;2023-05-07T08:46:53;22.10;85.40
5639;DHT22;2841;44.526;11.360;2023-05-07T08:49:23;22.10;84.20
5639;DHT22;2841;44.526;11.360;2023-05-07T08:51:51;22.20;84.00
5639;DHT22;2841;44.526;11.360;2023-05-07T08:54:18;22.30;82.90
5639;DHT22;2841;44.526;11.360;2023-05-07T08:56:47;22.50;82.50
5639;DHT22;2841;44.526;11.360;2023-05-07T08:59:14;22.50;81.70
5639;DHT22;2841;44.526;11.360;2023-05-07T09:01:41;22.50;81.40
5639;DHT22;2841;44.526;11.360;2023-05-07T09:04:09;22.60;80.80
5639;DHT22;2841;44.526;11.360;2023-05-07T09:06:36;22.70;80.60
5639;DHT22;2841;44.526;11.360;2023-05-07T09:09:07;22.80;80.00
5639;DHT22;2841;44.526;11.360;2023-05-07T09:11:34;22.80;79.50
5639;DHT22;2841;44.526;11.360;2023-05-07T09:14:01;22.80;79.30
5639;DHT22;2841;44.526;11.360;2023-05-07T09:16:30;22.90;78.90
5639;DHT22;2841;44.526;11.360;2023-05-07T09:18:58;23.10;78.80
5639;DHT22;2841;44.526;11.360;2023-05-07T09:21:25;23.20;78.50
5639;DHT22;2841;44.526;11.360;2023-05-07T09:23:53;23.40;78.20
5639;DHT22;2841;44.526;11.360;2023-05-07T09:26:23;23.50;77.50
5639;DHT22;2841;44.526;11.360;2023-05-07T09:28:50;23.50;76.90
5639;DHT22;2841;44.526;11.360;2023-05-07T09:31:17;23.50;76.70
5639;DHT22;2841;44.526;11.360;2023-05-07T09:33:45;23.50;76.20
5639;DHT22;2841;44.526;11.360;2023-05-07T09:36:12;23.60;75.80
5639;DHT22;2841;44.526;11.360;2023-05-07T09:38:39;23.70;75.20
5639;DHT22;2841;44.526;11.360;2023-05-07T09:41:08;23.70;74.70
5639;DHT22;2841;44.526;11.360;2023-05-07T09:43:38;23.80;74.40
5639;DHT22;2841;44.526;11.360;2023-05-07T09:46:13;24.00;74.20
5639;DHT22;2841;44.526;11.360;2023-05-07T09:48:42;24.10;73.50
5639;DHT22;2841;44.526;11.360;2023-05-07T09:51:15;24.10;73.30
5639;DHT22;2841;44.526;11.360;2023-05-07T09:53:45;24.20;72.90
5639;DHT22;2841;44.526;11.360;2023-05-07T09:56:14;24.30;72.70
5639;DHT22;2841;44.526;11.360;2023-05-07T09:58:43;24.30;72.40
5639;DHT22;2841;44.526;11.360;2023-05-07T10:01:12;24.50;72.30
5639;DHT22;2841;44.526;11.360;2023-05-07T10:03:41;24.60;72.00
5639;DHT22;2841;44.526;11.360;2023-05-07T10:06:09;24.70;72.30
5639;DHT22;2841;44.526;11.360;2023-05-07T10:08:37;24.80;71.50
5639;DHT22;2841;44.526;11.360;2023-05-07T10:11:05;24.90;71.50
5639;DHT22;2841;44.526;11.360;2023-05-07T10:13:33;25.00;71.00
5639;DHT22;2841;44.526;11.360;2023-05-07T10:16:05;25.00;70.80
5639;DHT22;2841;44.526;11.360;2023-05-07T10:18:33;25.00;70.60
5639;DHT22;2841;44.526;11.360;2023-05-07T10:21:07;25.10;70.50
5639;DHT22;2841;44.526;11.360;2023-05-07T10:23:35;25.10;70.10
5639;DHT22;2841;44.526;11.360;2023-05-07T10:26:04;25.10;69.90
5639;DHT22;2841;44.526;11.360;2023-05-07T10:28:36;25.20;69.80
5639;DHT22;2841;44.526;11.360;2023-05-07T10:31:14;25.30;69.70
5639;DHT22;2841;44.526;11.360;2023-05-07T10:33:46;25.50;69.30
5639;DHT22;2841;44.526;11.360;2023-05-07T10:36:14;25.50;68.90
5639;DHT22;2841;44.526;11.360;2023-05-07T10:38:41;25.50;68.70
5639;DHT22;2841;44.526;11.360;2023-05-07T10:41:09;25.60;68.30
5639;DHT22;2841;44.526;11.360;2023-05-07T10:43:40;25.70;68.20
5639;DHT22;2841;44.526;11.360;2023-05-07T10:46:16;25.70;67.80
5639;DHT22;2841;44.526;11.360;2023-05-07T10:49:11;25.90;68.20
5639;DHT22;2841;44.526;11.360;2023-05-07T10:51:38;26.00;67.20
5639;DHT22;2841;44.526;11.360;2023-05-07T10:54:22;26.00;67.00
5639;DHT22;2841;44.526;11.360;2023-05-07T10:56:50;26.10;66.30
5639;DHT22;2841;44.526;11.360;2023-05-07T10:59:36;26.10;66.20
5639;DHT22;2841;44.526;11.360;2023-05-07T11:02:11;26.30;65.90
5639;DHT22;2841;44.526;11.360;2023-05-07T11:04:40;26.30;65.50
5639;DHT22;2841;44.526;11.360;2023-05-07T11:07:26;26.30;65.40
5639;DHT22;2841;44.526;11.360;2023-05-07T11:09:59;26.40;65.00
5639;DHT22;2841;44.526;11.360;2023-05-07T11:15:41;26.60;64.40
5639;DHT22;2841;44.526;11.360;2023-05-07T11:18:12;26.80;64.00
5639;DHT22;2841;44.526;11.360;2023-05-07T11:20:47;26.80;63.60
5639;DHT22;2841;44.526;11.360;2023-05-07T11:23:55;26.80;63.50
5639;DHT22;2841;44.526;11.360;2023-05-07T11:26:30;26.80;63.30
5639;DHT22;2841;44.526;11.360;2023-05-07T11:28:58;26.80;63.40
5639;DHT22;2841;44.526;11.360;2023-05-07T11:31:27;26.90;63.40
5639;DHT22;2841;44.526;11.360;2023-05-07T11:33:57;27.00;63.40
5639;DHT22;2841;44.526;11.360;2023-05-07T11:36:25;27.20;63.30
5639;DHT22;2841;44.526;11.360;2023-05-07T11:38:53;27.40;63.10
5639;DHT22;2841;44.526;11.360;2023-05-07T11:41:20;27.50;62.90
5639;DHT22;2841;44.526;11.360;2023-05-07T11:43:58;27.60;62.60
5639;DHT22;2841;44.526;11.360;2023-05-07T11:46:27;27.70;62.50
5639;DHT22;2841;44.526;11.360;2023-05-07T11:48:56;27.90;62.50
5639;DHT22;2841;44.526;11.360;2023-05-07T11:51:24;28.10;62.30
5639;DHT22;2841;44.526;11.360;2023-05-07T11:53:53;28.40;62.20
5639;DHT22;2841;44.526;11.360;2023-05-07T11:56:20;28.70;61.70
5639;DHT22;2841;44.526;11.360;2023-05-07T11:58:48;28.70;61.50
5639;DHT22;2841;44.526;11.360;2023-05-07T12:01:15;28.70;61.30
5639;DHT22;2841;44.526;11.360;2023-05-07T12:03:46;28.90;61.30
5639;DHT22;2841;44.526;11.360;2023-05-07T12:06:16;29.10;61.30
5639;DHT22;2841;44.526;11.360;2023-05-07T12:08:44;29.10;60.60
5639;DHT22;2841;44.526;11.360;2023-05-07T12:11:15;29.20;60.50
5639;DHT22;2841;44.526;11.360;2023-05-07T12:13:43;29.20;60.00
5639;DHT22;2841;44.526;11.360;2023-05-07T12:16:11;29.30;60.00
5639;DHT22;2841;44.526;11.360;2023-05-07T12:18:39;29.30;59.70
5639;DHT22;2841;44.526;11.360;2023-05-07T12:21:07;29.50;59.50
5639;DHT22;2841;44.526;11.360;2023-05-07T12:23:37;29.70;59.20
5639;DHT22;2841;44.526;11.360;2023-05-07T12:26:05;29.70;58.90
5639;DHT22;2841;44.526;11.360;2023-05-07T12:28:36;29.70;58.80
5639;DHT22;2841;44.526;11.360;2023-05-07T12:31:05;29.80;58.50
5639;DHT22;2841;44.526;11.360;2023-05-07T12:33:32;29.80;58.30
5639;DHT22;2841;44.526;11.360;2023-05-07T12:36:03;29.90;58.20
5639;DHT22;2841;44.526;11.360;2023-05-07T12:38:37;29.90;58.10
5639;DHT22;2841;44.526;11.360;2023-05-07T12:41:05;29.90;58.10
5639;DHT22;2841;44.526;11.360;2023-05-07T12:43:33;29.90;57.90
5639;DHT22;2841;44.526;11.360;2023-05-07T12:46:01;30.00;57.90
5639;DHT22;2841;44.526;11.360;2023-05-07T12:48:30;30.10;57.80
5639;DHT22;2841;44.526;11.360;2023-05-07T12:51:00;30.20;57.60
5639;DHT22;2841;44.526;11.360;2023-05-07T12:53:29;30.20;57.40
5639;DHT22;2841;44.526;11.360;2023-05-07T12:55:59;30.20;57.30
5639;DHT22;2841;44.526;11.360;2023-05-07T12:58:27;30.20;57.20
5639;DHT22;2841;44.526;11.360;2023-05-07T13:00:55;30.30;57.20
5639;DHT22;2841;44.526;11.360;2023-05-07T13:03:28;30.40;57.10
5639;DHT22;2841;44.526;11.360;2023-05-07T13:05:57;30.40;57.00
5639;DHT22;2841;44.526;11.360;2023-05-07T13:08:26;30.30;57.00
5639;DHT22;2841;44.526;11.360;2023-05-07T13:10:54;30.20;56.90
5639;DHT22;2841;44.526;11.360;2023-05-07T13:13:22;30.30;56.90
5639;DHT22;2841;44.526;11.360;2023-05-07T13:15:50;30.30;56.60
5639;DHT22;2841;44.526;11.360;2023-05-07T13:18:18;30.40;56.50
5639;DHT22;2841;44.526;11.360;2023-05-07T13:20:47;30.50;56.40
5639;DHT22;2841;44.526;11.360;2023-05-07T13:23:14;30.50;56.30
5639;DHT22;2841;44.526;11.360;2023-05-07T13:25:41;30.50;56.00
5639;DHT22;2841;44.526;11.360;2023-05-07T13:28:08;30.50;55.90
5639;DHT22;2841;44.526;11.360;2023-05-07T13:30:40;30.50;55.80
5639;DHT22;2841;44.526;11.360;2023-05-07T13:33:11;30.70;55.60
5639;DHT22;2841;44.526;11.360;2023-05-07T13:35:40;30.80;55.20
5639;DHT22;2841;44.526;11.360;2023-05-07T13:38:07;30.90;55.00
5639;DHT22;2841;44.526;11.360;2023-05-07T13:40:34;31.00;55.10
5639;DHT22;2841;44.526;11.360;2023-05-07T13:43:01;31.00;54.80
5639;DHT22;2841;44.526;11.360;2023-05-07T13:45:29;31.00;54.80
5639;DHT22;2841;44.526;11.360;2023-05-07T13:47:58;31.00;54.80
5639;DHT22;2841;44.526;11.360;2023-05-07T13:50:25;31.00;54.90
5639;DHT22;2841;44.526;11.360;2023-05-07T13:52:56;31.00;54.90
5639;DHT22;2841;44.526;11.360;2023-05-07T13:55:24;30.90;55.10
5639;DHT22;2841;44.526;11.360;2023-05-07T13:57:55;30.90;55.40
5639;DHT22;2841;44.526;11.360;2023-05-07T14:00:23;30.80;55.50
5639;DHT22;2841;44.526;11.360;2023-05-07T14:02:51;30.80;55.60
5639;DHT22;2841;44.526;11.360;2023-05-07T14:05:20;30.70;55.60
5639;DHT22;2841;44.526;11.360;2023-05-07T14:07:49;30.60;55.50
5639;DHT22;2841;44.526;11.360;2023-05-07T14:10:17;30.80;55.50
5639;DHT22;2841;44.526;11.360;2023-05-07T14:12:45;30.90;55.30
5639;DHT22;2841;44.526;11.360;2023-05-07T14:15:12;31.10;55.10
5639;DHT22;2841;44.526;11.360;2023-05-07T14:17:39;31.30;55.00
5639;DHT22;2841;44.526;11.360;2023-05-07T14:20:07;31.40;54.80
5639;DHT22;2841;44.526;11.360;2023-05-07T14:22:37;31.60;54.70
5639;DHT22;2841;44.526;11.360;2023-05-07T14:25:06;31.80;54.30
5639;DHT22;2841;44.526;11.360;2023-05-07T14:27:35;31.90;53.90
5639;DHT22;2841;44.526;11.360;2023-05-07T14:30:02;31.90;53.60
5639;DHT22;2841;44.526;11.360;2023-05-07T14:32:29;31.90;53.60
5639;DHT22;2841;44.526;11.360;2023-05-07T14:34:56;31.80;53.70
5639;DHT22;2841;44.526;11.360;2023-05-07T14:37:24;31.80;53.90
5639;DHT22;2841;44.526;11.360;2023-05-07T14:39:52;32.10;53.60
5639;DHT22;2841;44.526;11.360;2023-05-07T14:42:19;32.30;53.40
5639;DHT22;2841;44.526;11.360;2023-05-07T14:44:47;32.30;53.30
5639;DHT22;2841;44.526;11.360;2023-05-07T14:47:14;32.60;52.90
5639;DHT22;2841;44.526;11.360;2023-05-07T14:49:41;32.80;52.40
5639;DHT22;2841;44.526;11.360;2023-05-07T14:52:08;33.10;52.10
5639;DHT22;2841;44.526;11.360;2023-05-07T14:54:37;33.30;51.80
5639;DHT22;2841;44.526;11.360;2023-05-07T14:57:08;33.30;51.40
5639;DHT22;2841;44.526;11.360;2023-05-07T14:59:35;33.20;51.40
5639;DHT22;2841;44.526;11.360;2023-05-07T15:02:02;32.60;51.90
5639;DHT22;2841;44.526;11.360;2023-05-07T15:04:31;32.40;52.40
5639;DHT22;2841;44.526;11.360;2023-05-07T15:06:58;32.40;52.30
5639;DHT22;2841;44.526;11.360;2023-05-07T15:09:25;32.50;52.40
5639;DHT22;2841;44.526;11.360;2023-05-07T15:11:52;32.80;52.20
5639;DHT22;2841;44.526;11.360;2023-05-07T15:14:21;33.30;51.70
5639;DHT22;2841;44.526;11.360;2023-05-07T15:16:48;33.60;51.10
5639;DHT22;2841;44.526;11.360;2023-05-07T15:19:15;33.80;50.80
5639;DHT22;2841;44.526;11.360;2023-05-07T15:21:43;33.60;50.80
5639;DHT22;2841;44.526;11.360;2023-05-07T15:24:10;32.90;51.40
5639;DHT22;2841;44.526;11.360;2023-05-07T15:26:37;32.20;52.30
5639;DHT22;2841;44.526;11.360;2023-05-07T15:29:04;31.50;53.30
5639;DHT22;2841;44.526;11.360;2023-05-07T15:31:36;31.00;54.10
5639;DHT22;2841;44.526;11.360;2023-05-07T15:34:05;30.50;54.90
5639;DHT22;2841;44.526;11.360;2023-05-07T15:36:32;30.40;55.30
5639;DHT22;2841;44.526;11.360;2023-05-07T15:38:59;30.70;55.40
5639;DHT22;2841;44.526;11.360;2023-05-07T15:41:28;30.80;55.40
5639;DHT22;2841;44.526;11.360;2023-05-07T15:43:55;30.90;55.50
5639;DHT22;2841;44.526;11.360;2023-05-07T15:46:24;31.20;55.40
5639;DHT22;2841;44.526;11.360;2023-05-07T15:48:53;31.30;55.20
5639;DHT22;2841;44.526;11.360;2023-05-07T15:51:21;31.10;55.30
5639;DHT22;2841;44.526;11.360;2023-05-07T15:53:49;30.80;55.80
5639;DHT22;2841;44.526;11.360;2023-05-07T15:56:16;30.80;56.20